• Join FlightAware (Why Join?)
  • Login
  • US Flag 
12:07AM EDT


 

Airport Tracker/Info


-or-


 

Live Flight TrackerFlight Track Log ✈ EGF2815 ✈ 21-Jul-2013 ✈ KJFK - KCLE

Flight Track Log - Related Links

Times and Time Zones

All times are in EDT time to prevent confusion due to time zone crossing. See the EGF2815 flight status page for this flight to view local times or setup timezone preferences in your user account.

Time Position Orientation Groundspeed Altitude Reporting Facility
EDT Latitude Longitude Course Direction KTS MPH feet Rate Location/Type
04:49PM 40.6167 -73.7667 281° West 159 183 1,500  Level New York TRACON
04:50PM 40.6000 -73.7167 114° Southeast 213 245 3,500 1,800 Climbing New York TRACON
04:51PM 40.8871 -73.7667 North  Level FlightAware Approximate
04:51PM 40.6500 -73.6500 45° Northeast 254 292 5,100  Level New York TRACON
04:52PM 40.9717 -73.7667 North  Level FlightAware Approximate
04:52PM 40.7167 -73.5833 37° Northeast 276 318 7,600  Level New York TRACON
04:53PM 41.0564 -73.7667 North  Level FlightAware Approximate
04:53PM 40.7833 -73.5333 30° Northeast 293 337 9,500  Level New York TRACON
04:54PM 41.1076 -73.8201 281° West  Level FlightAware Approximate
04:55PM 40.9150 -73.5281 North 301 346 12,700  Level New York Center
04:56PM 40.9675 -73.5989 314° West 282 325 14,400 1,740 Climbing New York Center
04:57PM 41.0342 -73.6786 318° Northwest 295 339 16,200 1,680 Climbing New York Center
04:58PM 41.0967 -73.7586 316° Northwest 300 345 17,800 1,500 Climbing New York Center
04:59PM 41.1319 -73.8456 298° West 302 348 19,200 1,440 Climbing New York Center
05:00PM 41.1186 -73.9550 261° West 288 331 20,800 1,440 Climbing New York Center
05:01PM 41.1031 -74.0672 260° West 288 331 22,100 1,320 Climbing New York Center
05:02PM 41.0853 -74.1792 258° West 300 345 23,400 1,380 Climbing New York Center
05:03PM 41.0675 -74.2883 258° West 306 352 24,900 1,200 Climbing New York Center
05:04PM 41.0494 -74.4028 258° West 317 365 25,900 540 Climbing New York Center
05:05PM 41.0356 -74.5178 261° West 317 365 26,000  Climbing New York Center
05:06PM 41.0172 -74.6294 258° West 317 365 26,000  Level New York Center
05:07PM 41.0008 -74.7467 260° West 317 365 26,000  Level New York Center
05:08PM 40.9867 -74.8614 261° West 317 365 26,000  Level New York Center
05:09PM 40.9700 -74.9758 259° West 317 365 26,000  Level New York Center
05:10PM 40.9389 -75.0864 250° West 317 365 26,000  Level New York Center
05:11PM 40.9119 -75.1944 252° West 317 365 26,000  Level New York Center
05:12PM 40.8850 -75.3053 252° West 317 365 26,000  Level New York Center
05:13PM 40.8642 -75.4136 256° West 317 365 26,000  Level New York Center
05:14PM 40.8389 -75.5272 254° West 317 365 26,000  Level New York Center
05:15PM 40.8114 -75.6350 251° West 317 365 26,000  Level New York Center
05:16PM 40.7839 -75.7481 252° West 317 365 26,000  Level New York Center
05:17PM 40.7561 -75.8583 252° West 317 365 26,000  Level New York Center
05:18PM 40.7306 -75.9714 253° West 317 365 26,000  Level New York Center
05:19PM 40.7025 -76.0817 251° West 317 365 26,000  Level New York Center
05:20PM 40.6744 -76.1972 252° West 322 371 26,000  Level New York Center
05:21PM 40.6733 -76.3119 269° West 317 365 26,000  Level New York Center
05:22PM 40.6908 -76.4283 281° West 310 357 26,000  Level New York Center
05:23PM 40.7081 -76.5419 281° West 315 362 26,000  Level New York Center
05:24PM 40.7275 -76.6586 282° West 315 362 26,000  Level New York Center
05:25PM 40.7444 -76.7753 281° West 315 362 26,000  Level New York Center
05:26PM 40.7594 -76.8917 280° West 315 362 26,000  Level New York Center
05:27PM 40.7783 -77.0058 282° West 315 362 26,000  Level New York Center
05:28PM 40.7931 -77.1222 280° West 315 362 26,000  Level New York Center
05:29PM 40.8119 -77.2336 283° West 315 362 26,000  Level New York Center
05:30PM 40.8278 -77.3614 279° West 320 368 26,000  Level New York Center
05:31PM 40.8433 -77.4589 282° West 315 362 26,000  Level New York Center
05:33PM 40.8772 -77.7050 280° West 316 364 26,000  Level Cleveland Center
05:34PM 40.8925 -77.8197 280° West 316 364 26,000  Level Cleveland Center
05:35PM 40.9078 -77.9344 280° West 316 364 26,000  Level Cleveland Center
05:36PM 40.9231 -78.0467 280° West 316 364 26,000  Level Cleveland Center
05:37PM 40.9422 -78.1614 283° West 316 364 26,000  Level Cleveland Center
05:38PM 40.9653 -78.2814 284° West 322 371 26,000  Level Cleveland Center
05:39PM 40.9842 -78.3936 283° West 322 371 26,000  Level Cleveland Center
05:40PM 41.0031 -78.5086 282° West 322 371 26,000  Level Cleveland Center
05:41PM 41.0219 -78.6264 282° West 322 371 26,000  Level Cleveland Center
05:42PM 41.0406 -78.7386 282° West 322 371 26,000  Level Cleveland Center
05:43PM 41.0589 -78.8539 282° West 322 371 26,000  Level Cleveland Center
05:44PM 41.0772 -78.9689 282° West 322 371 26,000  Level Cleveland Center
05:45PM 41.0956 -79.0869 282° West 322 371 26,000  Level Cleveland Center
05:46PM 41.1117 -79.1997 281° West 322 371 26,000  Level Cleveland Center
05:47PM 41.1317 -79.3178 283° West 322 371 26,000  Level Cleveland Center
05:48PM 41.1475 -79.4333 280° West 322 371 26,000  Level Cleveland Center
05:49PM 41.1653 -79.5517 281° West 322 371 26,000 -180 Level Cleveland Center
05:50PM 41.1808 -79.6644 280° West 322 371 25,700 -720 Descending Cleveland Center
05:51PM 41.2006 -79.7800 283° West 322 371 24,600 -900 Descending Cleveland Center
05:52PM 41.2178 -79.8958 281° West 322 371 24,000 -300 Descending Cleveland Center
05:53PM 41.2372 -80.0117 283° West 322 371 24,000  Level Cleveland Center
05:54PM 41.2525 -80.1275 280° West 322 371 24,000  Level Cleveland Center
05:55PM 41.2694 -80.2406 281° West 317 365 24,000  Level Cleveland Center
05:56PM 41.2864 -80.3511 282° West 317 365 24,000 -60 Level Cleveland Center
05:57PM 41.2992 -80.4558 279° West 317 365 23,900 -780 Descending Cleveland Center
05:58PM 41.3222 -80.5639 286° West 310 357 22,500 -1,860 Descending Cleveland Center
05:59PM 41.3575 -80.6661 295° West 305 351 20,200 -2,280 Descending Cleveland Center
06:00PM 41.3908 -80.7686 293° West 305 351 18,000 -2,340 Descending Cleveland Center
06:01PM 41.4178 -80.8628 291° West 300 345 15,900 -2,280 Descending Cleveland Center
06:01PM 41.4383 -80.9183 296° West 299 344 14,900 -1,980 Descending Cleveland Center
06:02PM 41.4547 -80.9711 293° West 300 345 13,700 -2,280 Descending Cleveland Center
06:03PM 41.4878 -81.0767 293° West 290 334 11,200 -1,860 Descending Cleveland Center
06:04PM 41.5164 -81.1739 291° West 285 328 10,000 -600 Descending Cleveland Center
06:05PM 41.5033 -81.2761 260° West 275 316 10,000  Level Cleveland Center
06:06PM 41.4881 -81.3786 259° West 282 325 10,000  Level Cleveland Center
06:07PM 41.4750 -81.4783 260° West 282 325 10,000 -60 Level Cleveland Center
06:08PM 41.4575 -81.5778 257° West 277 319 9,900 -960 Descending Cleveland Center
06:09PM 41.4192 -81.6658 240° Southwest 277 319 8,100 -1,500 Descending Cleveland Center
06:10PM 41.3828 -81.7511 240° Southwest 272 313 7,000 -1,380 Descending Cleveland Center
06:11PM 41.3192 -81.8606 232° Southwest 279 321 4,900 -1,260 Descending Cleveland Center
06:12PM 41.2703 -81.9339 228° Southwest 256 295 4,000 -840 Descending Cleveland Center
06:13PM 41.2797 -82.0117 279° West 236 272 3,300 -720 Descending Cleveland Center